createdAt,value
2022-09-28T00:00:35.321Z,194.00
2022-09-28T00:01:35.505Z,181.30
2022-09-28T00:02:35.796Z,197.00
2022-09-28T00:03:35.756Z,187.39
2022-09-28T00:04:35.898Z,197.39
2022-09-28T00:05:36.049Z,199.50
2022-09-28T00:06:36.186Z,186.69
2022-09-28T00:07:36.337Z,191.10
2022-09-28T00:08:36.472Z,198.30
2022-09-28T00:09:36.612Z,204.00
2022-09-28T00:10:36.760Z,200.69
2022-09-28T00:11:36.900Z,198.00
2022-09-28T00:12:37.048Z,200.39
2022-09-28T00:13:37.223Z,190.39
2022-09-28T00:14:37.347Z,194.60
2022-09-28T00:15:37.528Z,204.19
2022-09-28T00:16:37.700Z,204.89
2022-09-28T00:17:37.788Z,207.30
2022-09-28T00:18:37.935Z,192.19
2022-09-28T00:19:38.077Z,203.19
2022-09-28T00:20:38.225Z,217.60
2022-09-28T00:21:38.374Z,208.80
2022-09-28T00:22:38.524Z,219.50
2022-09-28T00:23:38.675Z,208.39
2022-09-28T00:24:38.816Z,220.30
2022-09-28T00:25:38.965Z,204.00
2022-09-28T00:26:39.113Z,211.80
2022-09-28T00:27:39.259Z,219.50
2022-09-28T00:28:39.436Z,205.19
2022-09-28T00:29:39.557Z,224.39
2022-09-28T00:30:39.704Z,223.19
2022-09-28T00:31:39.891Z,203.30
2022-09-28T00:32:40.003Z,216.00
2022-09-28T00:33:40.155Z,212.50
2022-09-28T00:34:40.310Z,224.50
2022-09-28T00:35:40.463Z,229.10
2022-09-28T00:36:40.618Z,231.80
2022-09-28T00:37:40.765Z,216.89
2022-09-28T00:38:40.917Z,236.00
2022-09-28T00:39:41.072Z,222.80
2022-09-28T00:40:41.313Z,229.50
2022-09-28T00:41:41.373Z,230.50
2022-09-28T00:42:41.527Z,219.19
2022-09-28T00:43:41.705Z,240.19
2022-09-28T00:44:41.834Z,227.10
2022-09-28T00:45:42.052Z,226.60
2022-09-28T00:46:42.134Z,227.10
2022-09-28T00:47:42.296Z,228.80
2022-09-28T00:48:42.443Z,239.39
2022-09-28T00:49:42.591Z,226.89
2022-09-28T00:50:42.742Z,235.10
2022-09-28T00:51:42.889Z,225.00
2022-09-28T00:52:43.035Z,237.60
2022-09-28T00:53:43.183Z,237.89
2022-09-28T00:54:43.333Z,235.50
2022-09-28T00:55:43.482Z,232.60
2022-09-28T00:56:43.634Z,233.50
2022-09-28T00:57:43.789Z,256.79
2022-09-28T00:58:43.960Z,248.00
2022-09-28T00:59:44.082Z,264.60
2022-09-28T01:00:44.269Z,252.19
2022-09-28T01:01:44.482Z,258.60
2022-09-28T01:02:44.529Z,258.20
2022-09-28T01:03:44.681Z,248.69
2022-09-28T01:04:44.831Z,267.39
2022-09-28T01:05:44.985Z,268.29
2022-09-28T01:06:45.135Z,283.50
2022-09-28T01:07:45.279Z,270.10
2022-09-28T01:08:45.426Z,251.19
2022-09-28T01:09:45.574Z,248.39
2022-09-28T01:10:45.719Z,252.69
2022-09-28T01:11:45.866Z,281.70
2022-09-28T01:12:46.017Z,261.60
2022-09-28T01:13:46.171Z,272.89
2022-09-28T01:14:46.480Z,286.10
2022-09-28T01:15:46.477Z,274.39
2022-09-28T01:16:46.689Z,280.50
2022-09-28T01:17:46.778Z,282.70
2022-09-28T01:18:46.925Z,266.10
2022-09-28T01:19:47.071Z,300.50
2022-09-28T01:20:47.219Z,284.00
2022-09-28T01:21:47.367Z,289.50
2022-09-28T01:22:47.526Z,293.20
2022-09-28T01:23:47.667Z,302.50
2022-09-28T01:24:47.814Z,304.29
2022-09-28T01:25:47.961Z,287.29
2022-09-28T01:26:48.107Z,297.39
2022-09-28T01:27:48.257Z,294.29
2022-09-28T01:28:48.405Z,275.39
2022-09-28T01:29:48.554Z,285.00
2022-09-28T01:30:48.728Z,291.60
2022-09-28T01:31:48.936Z,288.29
2022-09-28T01:32:49.009Z,294.89
2022-09-28T01:33:49.161Z,292.39
2022-09-28T01:34:49.312Z,310.20
2022-09-28T01:35:49.463Z,287.10
2022-09-28T01:36:49.614Z,282.89
2022-09-28T01:37:49.756Z,274.00
2022-09-28T01:38:49.904Z,294.20
2022-09-28T01:39:50.048Z,294.00
2022-09-28T01:40:50.307Z,278.50
2022-09-28T01:41:50.350Z,262.70
2022-09-28T01:42:50.499Z,263.20
2022-09-28T01:43:50.648Z,290.20
2022-09-28T01:44:50.806Z,275.60
2022-09-28T01:45:51.006Z,258.70
2022-09-28T01:46:51.122Z,250.00
2022-09-28T01:47:51.241Z,265.89
2022-09-28T01:48:51.388Z,280.70
2022-09-28T01:49:51.532Z,255.39
2022-09-28T01:50:51.676Z,259.10
2022-09-28T01:51:51.823Z,252.69
2022-09-28T01:52:51.971Z,242.30
2022-09-28T01:53:52.114Z,255.30
2022-09-28T01:54:52.260Z,277.10
2022-09-28T01:55:52.405Z,252.30
2022-09-28T01:56:52.554Z,226.89
2022-09-28T01:57:52.699Z,230.10
2022-09-28T01:58:52.845Z,222.19
2022-09-28T01:59:52.999Z,235.19
2022-09-28T02:00:53.188Z,232.39
2022-09-28T02:01:53.337Z,212.89
2022-09-28T02:02:53.462Z,240.19
2022-09-28T02:03:53.579Z,223.39
2022-09-28T02:04:53.725Z,220.60
2022-09-28T02:05:53.872Z,219.50
2022-09-28T02:06:54.014Z,217.89
2022-09-28T02:07:54.159Z,212.89
2022-09-28T02:08:54.306Z,215.10
2022-09-28T02:09:54.453Z,203.89
2022-09-28T02:10:54.602Z,200.19
2022-09-28T02:11:54.747Z,187.50
2022-09-28T02:12:54.892Z,201.10
2022-09-28T02:13:55.037Z,209.80
2022-09-28T02:14:55.181Z,201.30
2022-09-28T02:15:55.394Z,198.10
2022-09-28T02:16:55.469Z,180.80
2022-09-28T02:17:55.616Z,196.30
2022-09-28T02:18:55.819Z,186.50
2022-09-28T02:19:55.909Z,183.60
2022-09-28T02:20:56.056Z,190.30
2022-09-28T02:21:56.204Z,176.30
2022-09-28T02:22:56.355Z,182.89
2022-09-28T02:23:56.497Z,179.89
2022-09-28T02:24:56.645Z,189.30
2022-09-28T02:25:56.787Z,189.19
2022-09-28T02:26:56.931Z,195.10
2022-09-28T02:27:57.077Z,173.30
2022-09-28T02:28:57.220Z,171.60
2022-09-28T02:29:57.361Z,178.50
2022-09-28T02:30:57.511Z,202.19
2022-09-28T02:31:57.696Z,173.30
2022-09-28T02:32:57.819Z,197.19
2022-09-28T02:33:57.940Z,197.39
2022-09-28T02:34:58.103Z,192.10
2022-09-28T02:35:58.227Z,199.60
2022-09-28T02:36:58.363Z,172.69
2022-09-28T02:37:58.506Z,185.00
2022-09-28T02:38:58.655Z,185.19
2022-09-28T02:39:58.801Z,172.00
2022-09-28T02:40:59.016Z,180.19
2022-09-28T02:41:59.100Z,165.69
2022-09-28T02:42:59.247Z,183.00
2022-09-28T02:43:59.415Z,170.69
2022-09-28T02:44:59.545Z,177.60
2022-09-28T02:45:59.742Z,182.10
2022-09-28T02:46:59.843Z,177.39
2022-09-28T02:47:59.990Z,173.50
2022-09-28T02:49:20.375Z,158.39
2022-09-28T02:50:01.328Z,159.19
2022-09-28T02:51:00.439Z,151.00
2022-09-28T02:52:00.588Z,157.30
2022-09-28T02:53:00.737Z,163.19
2022-09-28T02:54:00.889Z,154.69
2022-09-28T02:55:01.034Z,179.80
2022-09-28T02:56:01.183Z,146.60
2022-09-28T02:57:01.331Z,176.10
2022-09-28T02:58:01.471Z,164.00
2022-09-28T02:59:01.609Z,152.60
2022-09-28T03:00:01.767Z,151.30
2022-09-28T03:01:02.008Z,148.39
2022-09-28T03:02:02.097Z,146.19
2022-09-28T03:03:02.193Z,146.39
2022-09-28T03:04:02.336Z,143.39
2022-09-28T03:05:02.482Z,151.89
2022-09-28T03:06:02.656Z,134.69
2022-09-28T03:07:02.774Z,148.50
2022-09-28T03:08:02.919Z,152.30
2022-09-28T03:09:03.066Z,136.80
2022-09-28T03:10:03.218Z,137.39
2022-09-28T03:11:03.369Z,150.10
2022-09-28T03:12:03.523Z,135.19
2022-09-28T03:13:03.670Z,141.39
2022-09-28T03:14:03.817Z,127.90
2022-09-28T03:15:03.965Z,137.10
2022-09-28T03:16:04.148Z,148.10
2022-09-28T03:17:04.255Z,134.00
2022-09-28T03:18:04.407Z,140.30
2022-09-28T03:19:04.550Z,157.60
2022-09-28T03:20:04.700Z,142.30
2022-09-28T03:21:04.850Z,141.10
2022-09-28T03:22:05.027Z,137.69
2022-09-28T03:23:24.789Z,141.80
2022-09-28T03:24:06.314Z,148.50
2022-09-28T03:25:05.455Z,140.30
2022-09-28T03:26:05.602Z,139.10
2022-09-28T03:27:05.749Z,145.89
2022-09-28T03:28:05.897Z,138.10
2022-09-28T03:29:06.041Z,142.00
2022-09-28T03:30:06.191Z,137.19
2022-09-28T03:31:06.470Z,141.30
2022-09-28T03:32:06.495Z,146.89
2022-09-28T03:33:06.644Z,135.60
2022-09-28T03:34:06.787Z,136.00
2022-09-28T03:35:06.935Z,139.19
2022-09-28T03:36:07.083Z,128.00
2022-09-28T03:37:07.227Z,136.80
2022-09-28T03:38:07.399Z,146.80
2022-09-28T03:39:07.515Z,135.60
2022-09-28T03:40:07.665Z,132.30
2022-09-28T03:41:07.811Z,146.10
2022-09-28T03:42:07.958Z,131.30
2022-09-28T03:43:08.114Z,133.10
2022-09-28T03:44:08.256Z,120.40
2022-09-28T03:45:08.402Z,147.19
2022-09-28T03:46:08.661Z,127.69
2022-09-28T03:47:08.696Z,143.39
2022-09-28T03:48:08.838Z,135.89
2022-09-28T03:49:08.986Z,148.50
2022-09-28T03:50:09.128Z,137.39
2022-09-28T03:51:09.277Z,130.10
2022-09-28T03:52:09.410Z,131.00
2022-09-28T03:53:09.572Z,150.80
2022-09-28T03:54:09.687Z,143.89
2022-09-28T03:55:09.830Z,142.89
2022-09-28T03:56:09.973Z,135.89
2022-09-28T03:57:10.117Z,151.60
2022-09-28T03:58:10.258Z,140.69
2022-09-28T03:59:10.499Z,135.89
2022-09-28T04:00:10.548Z,134.19
2022-09-28T04:01:14.175Z,141.69
2022-09-28T04:02:11.968Z,141.89
2022-09-28T04:03:10.959Z,140.50
2022-09-28T04:04:11.115Z,133.39
2022-09-28T04:05:11.244Z,138.10
2022-09-28T04:06:11.382Z,137.39
2022-09-28T04:07:11.525Z,132.80
2022-09-28T04:08:11.672Z,146.50
2022-09-28T04:09:11.842Z,122.69
2022-09-28T04:10:11.956Z,131.00
2022-09-28T04:11:12.098Z,156.89
2022-09-28T04:12:12.244Z,136.10
2022-09-28T04:13:12.386Z,130.30
2022-09-28T04:14:12.531Z,118.30
2022-09-28T04:15:12.669Z,116.09
2022-09-28T04:16:12.861Z,114.40
2022-09-28T04:17:12.957Z,117.59
2022-09-28T04:18:13.105Z,108.80
2022-09-28T04:19:13.327Z,122.40
2022-09-28T04:20:13.393Z,104.19
2022-09-28T04:21:13.540Z,108.80
2022-09-28T04:22:13.681Z,109.00
2022-09-28T04:23:13.829Z,107.19
2022-09-28T04:24:13.969Z,100.80
2022-09-28T04:25:14.135Z,108.00
2022-09-28T04:26:14.251Z,112.59
2022-09-28T04:27:14.404Z,119.40
2022-09-28T04:28:14.535Z,114.00
2022-09-28T04:29:14.673Z,113.50
2022-09-28T04:30:14.808Z,123.09
2022-09-28T04:31:15.038Z,109.40
2022-09-28T04:32:15.078Z,113.19
2022-09-28T04:33:15.218Z,109.30
2022-09-28T04:34:15.363Z,119.59
2022-09-28T04:35:15.496Z,100.50
2022-09-28T04:36:15.633Z,109.80
2022-09-28T04:37:15.769Z,98.50
2022-09-28T04:38:26.795Z,104.00
2022-09-28T04:39:17.172Z,103.40
2022-09-28T04:40:16.308Z,100.00
2022-09-28T04:41:16.376Z,94.09
2022-09-28T04:42:16.488Z,105.69
2022-09-28T04:43:16.635Z,98.40
2022-09-28T04:44:16.783Z,108.09
2022-09-28T04:45:16.929Z,121.50
2022-09-28T04:46:17.242Z,119.30
2022-09-28T04:47:17.237Z,113.80
2022-09-28T04:48:17.390Z,107.50
2022-09-28T04:49:17.646Z,109.50
2022-09-28T04:50:17.700Z,110.09
2022-09-28T04:51:17.844Z,121.09
2022-09-28T04:52:18.685Z,109.19
2022-09-28T04:53:18.155Z,124.30
2022-09-28T04:54:18.295Z,122.09
2022-09-28T04:55:18.444Z,114.30
2022-09-28T04:56:18.597Z,119.80
2022-09-28T04:57:18.840Z,121.19
2022-09-28T04:58:18.892Z,113.50
2022-09-28T04:59:19.043Z,128.19
2022-09-28T05:00:19.192Z,121.09
2022-09-28T05:01:19.398Z,125.69
2022-09-28T05:02:19.600Z,133.19
2022-09-28T05:03:19.644Z,131.30
2022-09-28T05:04:23.655Z,138.19
2022-09-28T05:05:19.942Z,126.80
2022-09-28T05:06:20.088Z,133.10
2022-09-28T05:07:20.243Z,128.10
2022-09-28T05:08:20.388Z,131.80
2022-09-28T05:09:20.534Z,128.30
2022-09-28T05:10:20.682Z,134.10
2022-09-28T05:11:20.828Z,124.19
2022-09-28T05:12:20.996Z,137.00
2022-09-28T05:13:21.119Z,130.00
2022-09-28T05:14:21.267Z,135.50
2022-09-28T05:15:21.412Z,128.10
2022-09-28T05:16:21.677Z,125.90
2022-09-28T05:17:21.702Z,134.89
2022-09-28T05:18:21.852Z,121.69
2022-09-28T05:19:22.004Z,142.89
2022-09-28T05:20:22.152Z,144.19
2022-09-28T05:21:22.299Z,147.60
2022-09-28T05:22:22.460Z,136.60
2022-09-28T05:23:22.611Z,146.80
2022-09-28T05:24:22.767Z,141.39
2022-09-28T05:25:22.962Z,145.39
2022-09-28T05:26:23.074Z,155.19
2022-09-28T05:27:23.253Z,148.80
2022-09-28T05:28:23.374Z,139.50
2022-09-28T05:29:23.525Z,141.30
2022-09-28T05:30:23.679Z,127.80
2022-09-28T05:31:23.950Z,129.00
2022-09-28T05:32:23.983Z,128.00
2022-09-28T05:33:24.137Z,120.69
2022-09-28T05:34:24.291Z,127.09
2022-09-28T05:35:24.448Z,121.69
2022-09-28T05:36:24.598Z,138.50
2022-09-28T05:37:24.748Z,125.30
2022-09-28T05:38:24.897Z,122.50
2022-09-28T05:39:25.051Z,133.30
2022-09-28T05:40:25.258Z,135.30
2022-09-28T05:41:25.351Z,117.59
2022-09-28T05:42:25.528Z,120.80
2022-09-28T05:43:25.661Z,118.30
2022-09-28T05:44:25.817Z,117.59
2022-09-28T05:45:26.044Z,123.00
2022-09-28T05:46:26.190Z,115.80
2022-09-28T05:47:26.274Z,119.40
2022-09-28T05:48:26.431Z,119.00
2022-09-28T05:49:26.584Z,116.19
2022-09-28T05:50:26.734Z,116.59
2022-09-28T05:51:26.892Z,126.00
2022-09-28T05:52:27.041Z,124.00
2022-09-28T05:53:27.193Z,124.80
2022-09-28T05:54:27.341Z,122.80
2022-09-28T05:55:27.531Z,123.50
2022-09-28T05:56:27.642Z,116.40
2022-09-28T05:57:27.813Z,114.09
2022-09-28T05:58:27.936Z,127.50
2022-09-28T05:59:28.075Z,132.69
2022-09-28T06:00:28.222Z,130.30
2022-09-28T06:01:28.494Z,145.80
2022-09-28T06:02:28.591Z,134.50
2022-09-28T06:03:28.662Z,132.60
2022-09-28T06:04:28.807Z,140.39
2022-09-28T06:05:28.955Z,134.89
2022-09-28T06:06:29.098Z,126.30
2022-09-28T06:07:29.243Z,136.00
2022-09-28T06:08:29.391Z,138.39
2022-09-28T06:09:29.539Z,140.50
2022-09-28T06:10:29.685Z,129.50
2022-09-28T06:11:29.830Z,126.19
2022-09-28T06:12:29.998Z,137.39
2022-09-28T06:13:30.124Z,136.80
2022-09-28T06:14:30.272Z,125.50
2022-09-28T06:15:30.421Z,125.80
2022-09-28T06:16:30.634Z,131.10
2022-09-28T06:17:30.718Z,120.09
2022-09-28T06:18:30.866Z,126.19
2022-09-28T06:19:31.011Z,127.59
2022-09-28T06:20:31.154Z,133.89
2022-09-28T06:21:31.296Z,121.59
2022-09-28T06:22:31.435Z,125.00
2022-09-28T06:23:31.578Z,125.59
2022-09-28T06:24:31.720Z,123.50
2022-09-28T06:25:31.865Z,117.50
2022-09-28T06:26:32.013Z,129.69
2022-09-28T06:27:32.181Z,129.89
2022-09-28T06:28:32.300Z,121.50
2022-09-28T06:29:32.442Z,139.39
2022-09-28T06:30:32.677Z,122.59
2022-09-28T06:31:32.723Z,113.40
2022-09-28T06:32:32.862Z,128.10
2022-09-28T06:33:33.006Z,139.10
2022-09-28T06:34:33.146Z,136.19
2022-09-28T06:35:33.287Z,137.50
2022-09-28T06:36:33.425Z,130.10
2022-09-28T06:37:33.568Z,129.30
2022-09-28T06:38:33.711Z,141.19
2022-09-28T06:39:33.854Z,140.89
2022-09-28T06:40:34.095Z,133.39
2022-09-28T06:41:34.139Z,137.60
2022-09-28T06:42:34.282Z,135.10
2022-09-28T06:43:34.667Z,140.69
2022-09-28T06:44:34.558Z,136.50
2022-09-28T06:45:34.701Z,136.69
2022-09-28T06:46:34.887Z,133.50
2022-09-28T06:47:34.985Z,152.00
2022-09-28T06:48:35.127Z,142.10
2022-09-28T06:49:35.278Z,139.89
2022-09-28T06:50:35.413Z,131.89
2022-09-28T06:51:35.559Z,118.19
2022-09-28T06:52:35.701Z,127.00
2022-09-28T06:53:35.839Z,119.90
2022-09-28T06:54:35.982Z,133.00
2022-09-28T06:55:36.144Z,125.90
2022-09-28T06:56:36.258Z,129.10
2022-09-28T06:57:36.397Z,125.09
2022-09-28T06:58:36.582Z,124.09
2022-09-28T06:59:36.724Z,131.30
2022-09-28T07:00:36.816Z,123.59
2022-09-28T07:01:37.055Z,119.90
2022-09-28T07:02:37.167Z,132.30
2022-09-28T07:03:37.240Z,127.19
2022-09-28T07:04:37.392Z,139.80
2022-09-28T07:05:37.515Z,134.69
2022-09-28T07:06:37.653Z,137.89
2022-09-28T07:07:37.991Z,130.50
2022-09-28T07:08:37.933Z,119.09
2022-09-28T07:09:42.214Z,135.60
2022-09-28T07:10:38.214Z,130.50
2022-09-28T07:11:38.343Z,129.60
2022-09-28T07:12:38.482Z,125.19
2022-09-28T07:13:53.948Z,124.09
2022-09-28T07:14:47.706Z,126.09
2022-09-28T07:15:39.919Z,134.50
2022-09-28T07:17:04.596Z,141.80
2022-09-28T07:17:52.774Z,138.39
2022-09-28T07:18:40.323Z,134.89
2022-09-28T07:19:39.439Z,123.00
2022-09-28T07:20:51.554Z,115.69
2022-09-28T07:21:40.734Z,124.30
2022-09-28T07:22:43.464Z,107.80
2022-09-28T07:23:50.651Z,111.00
2022-09-28T07:24:41.127Z,101.59
2022-09-28T07:25:40.244Z,94.90
2022-09-28T07:26:40.382Z,100.50
2022-09-28T07:27:40.510Z,97.69
2022-09-28T07:28:40.639Z,97.59
2022-09-28T07:29:40.772Z,97.19
2022-09-28T07:30:41.055Z,88.19
2022-09-28T07:31:41.030Z,91.00
2022-09-28T07:32:41.153Z,73.90
2022-09-28T07:33:41.279Z,112.09
2022-09-28T07:34:41.399Z,75.19
2022-09-28T07:35:41.522Z,74.40
2022-09-28T07:36:41.636Z,74.50
2022-09-28T07:37:41.751Z,73.69
2022-09-28T07:38:41.869Z,73.40
2022-09-28T07:39:41.988Z,80.90
2022-09-28T07:40:45.131Z,67.19
2022-09-28T07:41:43.242Z,56.09
2022-09-28T07:42:42.341Z,62.50
2022-09-28T07:43:42.455Z,52.70
2022-09-28T07:44:42.574Z,56.00
2022-09-28T07:45:42.815Z,56.50
2022-09-28T07:46:42.813Z,48.70
2022-09-28T07:47:42.930Z,39.90
2022-09-28T07:48:43.043Z,40.59
2022-09-28T07:49:43.166Z,38.70
2022-09-28T07:50:43.281Z,41.79
2022-09-28T07:51:43.399Z,43.90
2022-09-28T07:52:43.522Z,45.59
2022-09-28T07:53:43.636Z,41.09
2022-09-28T07:54:43.759Z,40.50
2022-09-28T07:55:43.881Z,38.29
2022-09-28T07:56:44.000Z,44.00
2022-09-28T07:57:44.122Z,40.00
2022-09-28T07:58:44.239Z,37.29
2022-09-28T07:59:44.355Z,32.79
2022-09-28T08:00:44.473Z,30.70
2022-09-28T08:01:44.699Z,35.59
2022-09-28T08:02:44.766Z,33.50
2022-09-28T08:03:44.813Z,28.79
2022-09-28T08:04:44.929Z,30.20
2022-09-28T08:05:45.043Z,33.90
2022-09-28T08:06:45.153Z,27.29
2022-09-28T08:07:45.258Z,29.70
2022-09-28T08:08:45.361Z,26.50
2022-09-28T08:09:45.463Z,30.70
2022-09-28T08:10:47.217Z,25.39
2022-09-28T08:11:45.663Z,21.70
2022-09-28T08:12:45.764Z,22.20
2022-09-28T08:13:45.862Z,24.79
2022-09-28T08:14:45.957Z,21.39
2022-09-28T08:15:46.059Z,23.00
2022-09-28T08:16:47.661Z,23.00
2022-09-28T08:17:46.282Z,19.79
2022-09-28T08:18:46.354Z,22.20
2022-09-28T08:19:46.453Z,20.89
2022-09-28T08:20:50.727Z,21.10
2022-09-28T08:21:46.641Z,20.79
2022-09-28T08:22:46.736Z,21.20
2022-09-28T08:23:46.831Z,20.00
2022-09-28T08:24:46.929Z,21.29
2022-09-28T08:25:47.031Z,23.70
2022-09-28T08:26:47.129Z,21.39
2022-09-28T08:27:47.227Z,23.20
2022-09-28T08:28:47.326Z,20.29
2022-09-28T08:29:47.415Z,22.50
2022-09-28T08:30:47.707Z,21.70
2022-09-28T08:31:47.604Z,21.20
2022-09-28T08:32:47.702Z,22.39
2022-09-28T08:33:47.824Z,19.70
2022-09-28T08:34:47.901Z,20.60
2022-09-28T08:35:48.000Z,21.39
2022-09-28T08:36:48.092Z,26.29
2022-09-28T08:37:52.329Z,21.70
2022-09-28T08:38:49.295Z,22.60
2022-09-28T08:39:48.373Z,18.20
2022-09-28T08:40:48.576Z,20.00
2022-09-28T08:41:48.569Z,20.89
2022-09-28T08:42:48.666Z,27.00
2022-09-28T08:43:48.762Z,25.20
2022-09-28T08:44:48.871Z,20.39
2022-09-28T08:45:48.995Z,20.79
2022-09-28T08:46:49.061Z,20.89
2022-09-28T08:47:49.161Z,21.50
2022-09-28T08:49:06.635Z,23.50
2022-09-28T08:49:49.419Z,22.29
2022-09-28T08:50:49.477Z,21.60
2022-09-28T08:51:49.567Z,20.60
2022-09-28T08:52:49.678Z,22.39
2022-09-28T08:53:49.779Z,22.70
2022-09-28T08:54:49.880Z,21.39
2022-09-28T08:55:49.990Z,23.89
2022-09-28T08:56:50.099Z,20.89
2022-09-28T08:57:50.207Z,20.10
2022-09-28T08:58:50.311Z,20.50
2022-09-28T08:59:50.419Z,22.89
2022-09-28T09:00:50.575Z,17.79
2022-09-28T09:01:50.677Z,16.70
2022-09-28T09:02:50.819Z,18.50
2022-09-28T09:03:50.818Z,20.00
2022-09-28T09:04:50.911Z,17.79
2022-09-28T09:05:51.021Z,19.79
2022-09-28T09:06:51.086Z,16.79
2022-09-28T09:07:51.171Z,15.50
2022-09-28T09:08:51.256Z,17.60
2022-09-28T09:09:51.329Z,17.20
2022-09-28T09:10:51.409Z,16.79
2022-09-28T09:11:51.484Z,15.50
2022-09-28T09:12:54.629Z,13.60
2022-09-28T09:13:51.641Z,17.10
2022-09-28T09:14:51.721Z,13.80
2022-09-28T09:15:51.816Z,14.10
2022-09-28T09:16:51.915Z,18.29
2022-09-28T09:17:51.955Z,16.60
2022-09-28T09:18:52.034Z,13.80
2022-09-28T09:19:52.117Z,15.39
2022-09-28T09:20:52.202Z,14.80
2022-09-28T09:21:52.314Z,16.20
2022-09-28T09:22:52.377Z,14.60
2022-09-28T09:23:52.458Z,16.70
2022-09-28T09:24:52.541Z,16.70
2022-09-28T09:25:52.620Z,16.60
2022-09-28T09:26:52.692Z,16.50
2022-09-28T09:27:52.768Z,16.79
2022-09-28T09:28:52.830Z,13.89
2022-09-28T09:29:52.888Z,13.00
2022-09-28T09:30:52.973Z,15.69
2022-09-28T09:31:52.978Z,13.30
2022-09-28T09:32:53.016Z,13.60
2022-09-28T09:33:53.055Z,12.50
2022-09-28T09:34:54.642Z,12.30
2022-09-28T09:35:53.118Z,12.30
2022-09-28T09:36:53.141Z,10.30
2022-09-28T09:37:57.720Z,11.80
2022-09-28T09:38:53.169Z,13.00
2022-09-28T09:39:53.173Z,9.00
2022-09-28T09:40:53.323Z,8.39
2022-09-28T09:41:53.175Z,11.50
2022-09-28T09:42:53.167Z,10.39
2022-09-28T09:43:53.154Z,11.30
2022-09-28T09:44:53.136Z,8.89
2022-09-28T09:45:53.177Z,11.10
2022-09-28T09:46:53.093Z,8.69
2022-09-28T09:47:53.077Z,9.39
2022-09-28T09:48:53.036Z,10.50
2022-09-28T09:49:53.008Z,9.19
2022-09-28T09:50:52.971Z,9.50
2022-09-28T09:51:52.934Z,9.50
2022-09-28T09:52:52.899Z,10.30
2022-09-28T09:53:52.895Z,10.39
2022-09-28T09:54:52.810Z,8.10
2022-09-28T09:55:52.763Z,9.19
2022-09-28T09:56:52.716Z,10.30
2022-09-28T09:57:52.668Z,9.00
2022-09-28T09:58:52.618Z,8.39
2022-09-28T09:59:52.567Z,8.19
2022-09-28T10:00:52.609Z,9.50
2022-09-28T10:01:52.469Z,10.00
2022-09-28T10:02:52.477Z,9.69
2022-09-28T10:03:52.357Z,9.30
2022-09-28T10:04:52.298Z,10.80
2022-09-28T10:05:52.242Z,8.69
2022-09-28T10:06:52.189Z,10.80
2022-09-28T10:07:52.148Z,10.10
2022-09-28T10:08:52.115Z,13.19
2022-09-28T10:09:52.133Z,11.39
2022-09-28T10:10:52.070Z,8.69
2022-09-28T10:11:52.076Z,10.50
2022-09-28T10:12:52.057Z,12.80
2022-09-28T10:13:52.062Z,12.19
2022-09-28T10:14:52.073Z,10.89
2022-09-28T10:15:52.094Z,10.69
2022-09-28T10:16:52.169Z,10.69
2022-09-28T10:17:52.151Z,9.80
2022-09-28T10:18:52.181Z,9.80
2022-09-28T10:19:52.224Z,10.00
2022-09-28T10:20:52.266Z,8.19
2022-09-28T10:21:52.305Z,9.19
2022-09-28T10:22:52.358Z,8.39
2022-09-28T10:23:52.395Z,8.89
2022-09-28T10:24:52.446Z,9.19
2022-09-28T10:25:52.507Z,8.00
2022-09-28T10:26:52.503Z,7.00
2022-09-28T10:27:52.582Z,7.90
2022-09-28T10:28:52.535Z,8.19
2022-09-28T10:29:52.548Z,8.80
2022-09-28T10:30:52.709Z,8.60
2022-09-28T10:31:52.582Z,5.59
2022-09-28T10:32:52.595Z,5.90
2022-09-28T10:33:52.590Z,7.90
2022-09-28T10:34:52.580Z,6.50
2022-09-28T10:35:52.559Z,6.69
2022-09-28T10:36:52.536Z,6.50
2022-09-28T10:37:52.502Z,5.50
2022-09-28T10:38:52.460Z,6.19
2022-09-28T10:39:52.415Z,5.90
2022-09-28T10:40:52.380Z,8.00
2022-09-28T10:41:52.322Z,8.19
2022-09-28T10:42:52.247Z,10.10
2022-09-28T10:43:57.403Z,7.19
2022-09-28T10:44:52.162Z,7.09
2022-09-28T10:45:52.146Z,6.69
2022-09-28T10:46:52.100Z,7.80
2022-09-28T10:47:52.194Z,6.40
2022-09-28T10:48:52.070Z,6.59
2022-09-28T10:49:52.064Z,6.19
2022-09-28T10:50:52.066Z,6.50
2022-09-28T10:51:52.081Z,5.80
2022-09-28T10:52:52.117Z,5.50
2022-09-28T10:53:52.101Z,22.70
2022-09-28T10:54:52.118Z,10.10
2022-09-28T10:55:52.134Z,7.80
2022-09-28T10:56:52.150Z,10.39
2022-09-28T10:57:52.192Z,8.39
2022-09-28T10:58:52.200Z,9.89
2022-09-28T10:59:52.195Z,8.89
2022-09-28T11:00:52.311Z,9.60
2022-09-28T11:01:52.228Z,8.39
2022-09-28T11:02:52.268Z,8.19
2022-09-28T11:03:52.271Z,11.00
2022-09-28T11:04:52.298Z,9.19
2022-09-28T11:05:52.324Z,8.50
2022-09-28T11:06:52.409Z,6.50
2022-09-28T11:07:52.392Z,6.59
2022-09-28T11:08:52.417Z,6.00
2022-09-28T11:09:52.457Z,9.80
2022-09-28T11:10:52.492Z,9.60
2022-09-28T11:11:52.526Z,11.39
2022-09-28T11:12:52.564Z,10.00
2022-09-28T11:13:52.739Z,11.00
2022-09-28T11:14:52.652Z,11.19
2022-09-28T11:15:52.688Z,9.30
2022-09-28T11:16:52.806Z,9.80
2022-09-28T11:17:52.777Z,9.00
2022-09-28T11:18:52.825Z,8.50
2022-09-28T11:19:52.868Z,9.10
2022-09-28T11:20:52.906Z,9.69
2022-09-28T11:21:52.936Z,9.89
2022-09-28T11:22:53.665Z,11.10
2022-09-28T11:23:52.946Z,9.00
2022-09-28T11:24:52.938Z,6.69
2022-09-28T11:25:52.937Z,8.39
2022-09-28T11:26:52.954Z,7.00
2022-09-28T11:27:52.965Z,7.19
2022-09-28T11:28:52.971Z,8.10
2022-09-28T11:29:53.054Z,7.09
2022-09-28T11:30:53.115Z,7.09
2022-09-28T11:31:53.058Z,8.30
2022-09-28T11:32:53.093Z,10.80
2022-09-28T11:33:53.131Z,9.69
2022-09-28T11:34:59.741Z,10.10
2022-09-28T11:35:54.234Z,9.50
2022-09-28T11:36:53.268Z,9.80
2022-09-28T11:37:53.324Z,9.10
2022-09-28T11:38:53.384Z,9.80
2022-09-28T11:39:53.451Z,8.39
2022-09-28T11:40:53.562Z,10.39
2022-09-28T11:41:53.577Z,8.69
2022-09-28T11:42:53.707Z,9.89
2022-09-28T11:43:53.712Z,8.30
2022-09-28T11:44:53.780Z,9.80
2022-09-28T11:45:54.017Z,9.10
2022-09-28T11:46:53.923Z,8.19
2022-09-28T11:47:53.991Z,8.50
2022-09-28T11:48:54.062Z,8.30
2022-09-28T11:49:54.135Z,8.69
2022-09-28T11:50:54.218Z,7.69
2022-09-28T11:51:54.288Z,10.30
2022-09-28T11:52:54.364Z,9.39
2022-09-28T11:53:54.439Z,8.60
2022-09-28T11:54:54.513Z,7.19
2022-09-28T11:55:54.586Z,8.19
2022-09-28T11:56:54.664Z,7.00
2022-09-28T11:57:54.742Z,8.10
2022-09-28T11:58:54.834Z,8.80
2022-09-28T11:59:54.892Z,9.30
2022-09-28T12:00:54.975Z,13.19
2022-09-28T12:01:55.078Z,8.30
2022-09-28T12:02:55.265Z,6.80
2022-09-28T12:03:55.208Z,8.19
2022-09-28T12:04:55.292Z,8.50
2022-09-28T12:05:55.463Z,8.39
2022-09-28T12:06:55.457Z,6.90
2022-09-28T12:07:55.541Z,7.59
2022-09-28T12:08:55.620Z,7.50
2022-09-28T12:09:55.705Z,8.00
2022-09-28T12:10:55.787Z,6.80
2022-09-28T12:11:55.866Z,5.50
2022-09-28T12:12:55.948Z,6.80
2022-09-28T12:13:56.021Z,5.40
2022-09-28T12:14:56.099Z,6.69
2022-09-28T12:17:11.811Z,6.50
2022-09-28T12:17:57.488Z,5.19
2022-09-28T12:18:56.454Z,5.59
2022-09-28T12:19:56.498Z,5.40
2022-09-28T12:20:56.572Z,5.40
2022-09-28T12:21:56.642Z,5.50
2022-09-28T12:22:56.717Z,6.50
2022-09-28T12:23:56.788Z,5.00
2022-09-28T12:24:56.863Z,7.09
2022-09-28T12:25:56.932Z,5.50
2022-09-28T12:26:57.004Z,5.30
2022-09-28T12:27:57.076Z,5.59
2022-09-28T12:28:57.145Z,5.09
2022-09-28T12:29:57.213Z,4.50
2022-09-28T12:30:57.346Z,5.69
2022-09-28T12:31:57.349Z,4.80
2022-09-28T12:32:57.416Z,6.50
2022-09-28T12:33:57.506Z,5.80
2022-09-28T12:34:57.546Z,4.80
2022-09-28T12:35:57.611Z,4.80
2022-09-28T12:36:57.671Z,7.19
2022-09-28T12:37:57.732Z,6.40
2022-09-28T12:39:17.542Z,4.59
2022-09-28T12:39:59.018Z,5.90
2022-09-28T12:40:57.978Z,6.50
2022-09-28T12:41:57.919Z,4.19
2022-09-28T12:42:57.935Z,3.29
2022-09-28T12:43:57.937Z,5.69
2022-09-28T12:44:59.613Z,3.40
2022-09-28T12:46:12.634Z,3.90